createdAt,value
2019-04-28T00:04:24.744Z,6.00
2019-04-28T00:09:31.349Z,6.00
2019-04-28T00:14:36.676Z,6.10
2019-04-28T00:19:42.024Z,6.10
2019-04-28T00:25:04.560Z,6.10
2019-04-28T00:30:11.772Z,6.20
2019-04-28T00:35:17.163Z,6.10
2019-04-28T00:40:22.855Z,6.10
2019-04-28T00:45:28.208Z,6.00
2019-04-28T00:50:33.604Z,6.00
2019-04-28T00:55:38.951Z,6.00
2019-04-28T01:00:46.103Z,6.10
2019-04-28T01:05:51.429Z,6.10
2019-04-28T01:10:56.871Z,6.10
2019-04-28T01:16:09.419Z,6.10
2019-04-28T01:21:14.729Z,6.00
2019-04-28T01:26:20.125Z,5.80
2019-04-28T01:31:39.530Z,5.70
2019-04-28T01:36:44.812Z,5.70
2019-04-28T01:41:50.120Z,5.80
2019-04-28T01:46:55.465Z,5.90
2019-04-28T01:52:01.362Z,5.90
2019-04-28T01:57:06.780Z,6.00
2019-04-28T02:02:12.183Z,6.00
2019-04-28T02:07:17.517Z,5.90
2019-04-28T02:12:22.907Z,5.90
2019-04-28T02:17:30.251Z,5.90
2019-04-28T02:22:43.692Z,5.80
2019-04-28T02:27:49.951Z,5.80
2019-04-28T02:32:55.300Z,5.80
2019-04-28T02:43:05.576Z,5.80
2019-04-28T02:48:16.303Z,5.90
2019-04-28T02:53:33.247Z,5.80
2019-04-28T02:58:37.724Z,5.80
2019-04-28T03:03:43.051Z,5.80
2019-04-28T03:08:50.611Z,5.80
2019-04-28T03:13:55.326Z,5.80
2019-04-28T03:19:01.356Z,5.80
2019-04-28T03:24:06.843Z,5.80
2019-04-28T03:29:20.525Z,5.80
2019-04-28T03:34:43.655Z,5.80
2019-04-28T03:39:50.397Z,5.80
2019-04-28T03:44:57.557Z,5.80
2019-04-28T03:50:02.957Z,5.80
2019-04-28T03:55:08.361Z,5.80
2019-04-28T04:00:13.929Z,5.80
2019-04-28T04:05:20.807Z,5.90
2019-04-28T04:10:33.678Z,5.90
2019-04-28T04:15:50.593Z,5.80
2019-04-28T04:20:54.077Z,5.70
2019-04-28T04:26:01.598Z,5.70
2019-04-28T04:31:06.319Z,5.70
2019-04-28T04:36:12.104Z,5.70
2019-04-28T04:41:17.421Z,5.70
2019-04-28T04:46:24.575Z,5.70
2019-04-28T04:51:30.817Z,5.60
2019-04-28T04:56:36.205Z,5.50
2019-04-28T05:01:54.299Z,5.50
2019-04-28T05:07:00.723Z,5.40
2019-04-28T05:12:06.993Z,5.40
2019-04-28T05:17:12.320Z,5.40
2019-04-28T05:22:20.184Z,5.30
2019-04-28T05:27:25.876Z,5.30
2019-04-28T05:32:42.325Z,5.40
2019-04-28T05:37:40.302Z,5.40
2019-04-28T05:43:00.695Z,5.50
2019-04-28T05:48:08.734Z,5.70
2019-04-28T05:53:34.671Z,5.70
2019-04-28T05:58:47.391Z,5.80
2019-04-28T06:03:52.883Z,6.20
2019-04-28T06:09:04.088Z,6.40
2019-04-28T06:14:10.156Z,6.40
2019-04-28T06:19:15.465Z,7.00
2019-04-28T06:24:20.783Z,7.30
2019-04-28T06:29:26.069Z,7.00
2019-04-28T06:34:31.476Z,7.20
2019-04-28T06:39:36.790Z,7.60
2019-04-28T06:44:43.731Z,7.60
2019-04-28T06:49:49.039Z,7.70
2019-04-28T06:54:54.357Z,7.90
2019-04-28T06:59:59.814Z,7.90
2019-04-28T07:05:05.734Z,7.60
2019-04-28T07:10:11.079Z,7.80
2019-04-28T07:15:16.884Z,8.20
2019-04-28T07:20:41.219Z,7.70
2019-04-28T07:25:46.595Z,7.70
2019-04-28T07:30:52.715Z,7.60
2019-04-28T07:35:58.823Z,7.70
2019-04-28T07:41:04.185Z,7.60
2019-04-28T07:46:09.521Z,7.50
2019-04-28T07:51:14.923Z,7.50
2019-04-28T07:56:20.517Z,7.70
2019-04-28T08:01:25.952Z,7.80
2019-04-28T08:06:31.335Z,7.80
2019-04-28T08:11:36.645Z,7.70
2019-04-28T08:16:41.963Z,7.60
2019-04-28T08:21:47.309Z,7.70
2019-04-28T08:26:52.763Z,8.00
2019-04-28T08:32:18.020Z,8.10
2019-04-28T08:37:23.391Z,8.10
2019-04-28T08:42:28.708Z,8.10
2019-04-28T08:47:34.059Z,8.40
2019-04-28T08:52:39.388Z,8.50
2019-04-28T08:57:44.685Z,8.70
2019-04-28T09:02:50.013Z,8.90
2019-04-28T09:07:55.469Z,8.90
2019-04-28T09:13:01.194Z,9.00
2019-04-28T09:18:06.601Z,8.90
2019-04-28T09:23:11.915Z,9.20
2019-04-28T09:28:17.666Z,9.30
2019-04-28T09:33:23.229Z,9.70
2019-04-28T09:38:28.613Z,10.20
2019-04-28T09:43:52.903Z,10.90
2019-04-28T09:48:58.294Z,11.00
2019-04-28T09:54:04.771Z,11.00
2019-04-28T09:59:10.229Z,10.50
2019-04-28T10:04:15.730Z,10.50
2019-04-28T10:09:21.052Z,10.60
2019-04-28T10:14:26.430Z,12.20
2019-04-28T10:19:32.690Z,13.60
2019-04-28T10:24:38.488Z,14.20
2019-04-28T10:29:43.977Z,15.00
2019-04-28T10:34:55.026Z,15.40
2019-04-28T10:40:04.493Z,14.10
2019-04-28T10:45:12.243Z,11.80
2019-04-28T10:50:18.094Z,10.90
2019-04-28T10:55:23.579Z,10.20
2019-04-28T11:00:34.564Z,10.40
2019-04-28T11:05:43.043Z,10.50
2019-04-28T11:10:48.519Z,10.70
2019-04-28T11:15:54.716Z,10.90
2019-04-28T11:21:00.344Z,11.30
2019-04-28T11:26:06.606Z,11.30
2019-04-28T11:31:12.219Z,10.40
2019-04-28T11:36:19.908Z,10.10
2019-04-28T11:41:25.227Z,10.60
2019-04-28T11:46:31.309Z,10.40
2019-04-28T11:51:36.884Z,10.70
2019-04-28T11:56:42.760Z,11.00
2019-04-28T12:01:48.260Z,11.90
2019-04-28T12:06:55.016Z,13.20
2019-04-28T12:12:01.212Z,15.00
2019-04-28T12:17:21.217Z,15.80
2019-04-28T12:22:26.690Z,17.90
2019-04-28T12:27:32.357Z,16.20
2019-04-28T12:32:37.876Z,15.40
2019-04-28T12:37:43.316Z,15.80
2019-04-28T12:42:50.275Z,14.70
2019-04-28T12:47:55.585Z,13.50
2019-04-28T12:53:01.351Z,12.90
2019-04-28T12:58:06.729Z,12.10
2019-04-28T13:03:15.461Z,11.90
2019-04-28T13:08:21.126Z,11.60
2019-04-28T13:13:26.510Z,11.10
2019-04-28T13:18:31.852Z,9.40
2019-04-28T13:23:37.148Z,10.90
2019-04-28T13:28:42.567Z,11.10
2019-04-28T13:33:56.243Z,11.10
2019-04-28T13:38:57.104Z,11.40
2019-04-28T13:44:04.239Z,11.80
2019-04-28T13:49:11.626Z,12.10
2019-04-28T13:54:18.797Z,12.10
2019-04-28T13:59:24.383Z,12.20
2019-04-28T14:04:41.571Z,12.40
2019-04-28T14:09:46.923Z,12.80
2019-04-28T14:14:53.882Z,14.70
2019-04-28T14:19:59.303Z,15.40
2019-04-28T14:25:04.751Z,17.90
2019-04-28T14:30:10.339Z,19.90
2019-04-28T14:35:15.903Z,20.10
2019-04-28T14:40:21.347Z,18.00
2019-04-28T14:45:27.060Z,16.50
2019-04-28T14:50:32.554Z,19.10
2019-04-28T14:55:37.961Z,20.10
2019-04-28T15:00:48.252Z,21.70
2019-04-28T15:06:02.868Z,23.10
2019-04-28T15:11:13.272Z,20.30
2019-04-28T15:16:18.535Z,19.20
2019-04-28T15:21:23.848Z,20.60
2019-04-28T15:26:29.294Z,21.40
2019-04-28T15:31:35.026Z,20.20
2019-04-28T15:36:41.015Z,17.60
2019-04-28T15:41:46.719Z,15.70
2019-04-28T15:46:52.930Z,14.80
2019-04-28T15:51:58.598Z,14.20
2019-04-28T15:57:04.448Z,13.80
2019-04-28T16:02:10.203Z,13.50
2019-04-28T16:07:24.653Z,13.30
2019-04-28T16:12:25.890Z,13.10
2019-04-28T16:17:31.510Z,12.90
2019-04-28T16:22:37.631Z,12.70
2019-04-28T16:27:43.451Z,12.50
2019-04-28T16:32:50.873Z,15.10
2019-04-28T16:37:57.045Z,12.40
2019-04-28T16:43:03.840Z,12.30
2019-04-28T16:48:09.576Z,12.20
2019-04-28T16:53:15.476Z,12.20
2019-04-28T16:58:29.472Z,12.10
2019-04-28T17:03:36.639Z,12.10
2019-04-28T17:08:44.615Z,11.90
2019-04-28T17:13:50.343Z,11.70
2019-04-28T17:18:55.876Z,11.50
2019-04-28T17:24:01.309Z,11.40
2019-04-28T17:29:06.677Z,11.30
2019-04-28T17:34:12.172Z,11.10
2019-04-28T17:39:21.175Z,11.00
2019-04-28T17:44:26.576Z,10.90
2019-04-28T17:49:38.716Z,10.60
2019-04-28T17:54:44.022Z,10.50
2019-04-28T17:59:50.900Z,10.40
2019-04-28T18:05:13.510Z,10.20
2019-04-28T18:10:19.928Z,10.10
2019-04-28T18:15:36.424Z,10.00
2019-04-28T18:20:41.853Z,9.90
2019-04-28T18:25:48.272Z,9.60
2019-04-28T18:31:02.143Z,9.50
2019-04-28T18:36:11.655Z,9.30
2019-04-28T18:41:34.367Z,9.10
2019-04-28T18:46:39.773Z,8.90
2019-04-28T18:51:45.106Z,8.70
2019-04-28T18:56:50.475Z,8.60
2019-04-28T19:02:14.775Z,8.30
2019-04-28T19:07:31.079Z,8.30
2019-04-28T19:12:52.984Z,8.20
2019-04-28T19:18:06.338Z,8.00
2019-04-28T19:23:11.940Z,7.60
2019-04-28T19:28:17.401Z,7.40
2019-04-28T19:33:23.927Z,7.40
2019-04-28T19:38:29.411Z,7.30
2019-04-28T19:43:34.842Z,7.20
2019-04-28T19:48:40.257Z,7.20
2019-04-28T19:53:45.629Z,7.10
2019-04-28T19:59:08.015Z,6.90
2019-04-28T20:04:13.405Z,6.80
2019-04-28T20:09:18.854Z,6.80
2019-04-28T20:14:24.248Z,6.70
2019-04-28T20:19:29.579Z,6.60
2019-04-28T20:24:46.635Z,6.70
2019-04-28T20:29:42.380Z,6.70
2019-04-28T20:34:47.828Z,6.90
2019-04-28T20:39:57.195Z,6.90
2019-04-28T20:45:02.477Z,6.80
2019-04-28T20:50:08.476Z,6.60
2019-04-28T20:55:13.880Z,6.40
2019-04-28T21:00:19.204Z,6.40
2019-04-28T21:05:25.907Z,6.40
2019-04-28T21:10:38.238Z,6.40
2019-04-28T21:15:39.092Z,6.40
2019-04-28T21:20:44.434Z,6.30
2019-04-28T21:25:49.766Z,6.30
2019-04-28T21:30:55.145Z,6.30
2019-04-28T21:36:00.539Z,8.90
2019-04-28T21:41:05.974Z,6.40
2019-04-28T21:46:39.131Z,6.40
2019-04-28T21:51:44.641Z,6.40
2019-04-28T21:56:49.990Z,6.30
2019-04-28T22:01:55.680Z,6.30
2019-04-28T22:07:01.139Z,6.30
2019-04-28T22:12:06.516Z,6.20
2019-04-28T22:17:12.895Z,6.10
2019-04-28T22:22:18.303Z,6.00
2019-04-28T22:27:30.072Z,5.90
2019-04-28T22:32:35.358Z,5.90
2019-04-28T22:37:40.673Z,5.80
2019-04-28T22:42:47.016Z,5.80
2019-04-28T22:47:53.812Z,5.70
2019-04-28T22:52:59.331Z,5.50
2019-04-28T22:58:23.171Z,5.40
2019-04-28T23:03:38.372Z,5.40
2019-04-28T23:08:43.708Z,5.30
2019-04-28T23:13:49.016Z,5.40
2019-04-28T23:18:56.200Z,5.40
2019-04-28T23:24:01.615Z,5.50
2019-04-28T23:29:06.915Z,5.60
2019-04-28T23:34:12.220Z,5.50
2019-04-28T23:39:17.533Z,5.50
2019-04-28T23:44:22.811Z,5.40
2019-04-28T23:49:30.055Z,5.30
2019-04-28T23:54:36.607Z,5.20
2019-04-28T23:59:41.932Z,5.10
